Time;durP1;ratioP1;P1;durP2;ratioP2;P2;SDS_P1;SDS_P2;PMS_P1;PMS_P2;Temp;Humidity;BMP_temperature;BMP_pressure;BME280_temperature;BME280_humidity;BME280_pressure;Samples;Min_cycle;Max_cycle;Signal;HPM_P1;HPM_P2
2022/01/13 00:00:19;;;;;;;113.95;37.67;;;5.40;99.90;;;;;;5034776;28;20033;-79
2022/01/13 00:02:46;;;;;;;120.53;38.22;;;5.40;99.90;;;;;;5034479;28;20036;-80
2022/01/13 00:05:17;;;;;;;108.90;37.83;;;5.50;99.90;;;;;;5033271;28;20037;-80
2022/01/13 00:07:49;;;;;;;100.80;36.50;;;5.40;99.90;;;;;;5034542;28;20018;-80
2022/01/13 00:10:15;;;;;;;94.63;34.17;;;5.50;99.90;;;;;;5049897;28;20397;-80
2022/01/13 00:12:43;;;;;;;98.05;34.60;;;5.50;99.90;;;;;;5032494;28;20067;-80
2022/01/13 00:15:23;;;;;;;107.07;36.33;;;5.40;99.90;;;;;;5048328;28;20033;-79
2022/01/13 00:23:38;;;;;;;98.07;33.75;;;5.40;99.90;;;;;;5054248;28;20382;-79
2022/01/13 00:25:38;;;;;;;99.10;34.35;;;5.30;99.90;;;;;;5047592;28;20033;-79
2022/01/13 00:28:15;;;;;;;96.68;34.17;;;5.20;99.90;;;;;;5033705;28;20393;-79
2022/01/13 00:30:44;;;;;;;99.75;33.22;;;5.30;99.90;;;;;;5033952;28;20017;-79
2022/01/13 00:33:11;;;;;;;88.40;33.45;;;5.30;99.90;;;;;;5032582;28;20095;-80
2022/01/13 00:35:37;;;;;;;111.22;36.88;;;5.30;99.90;;;;;;5034456;28;20045;-80
2022/01/13 00:38:03;;;;;;;114.20;35.72;;;5.40;99.90;;;;;;5069752;28;20032;-79
2022/01/13 00:40:29;;;;;;;119.35;35.70;;;5.40;99.90;;;;;;5059757;28;20125;-79
2022/01/13 00:42:56;;;;;;;112.85;37.92;;;5.40;99.90;;;;;;5089039;28;20373;-79
2022/01/13 00:45:27;;;;;;;113.65;36.97;;;5.50;99.90;;;;;;5056519;28;20025;-79
2022/01/13 00:47:54;;;;;;;111.60;35.77;;;5.40;99.90;;;;;;5053697;28;20029;-79
2022/01/13 00:50:21;;;;;;;112.70;36.90;;;5.30;99.90;;;;;;5052383;28;20389;-79
2022/01/13 00:52:52;;;;;;;111.40;37.55;;;5.40;99.90;;;;;;5053403;28;20024;-79
2022/01/13 00:55:32;;;;;;;156.25;42.22;;;5.40;99.90;;;;;;5057815;28;20424;-79
2022/01/13 00:58:00;;;;;;;119.80;37.47;;;5.30;99.90;;;;;;5053247;28;20025;-79
2022/01/13 01:00:29;;;;;;;119.32;38.28;;;5.30;99.90;;;;;;5052194;28;20496;-79
2022/01/13 01:02:58;;;;;;;123.57;39.00;;;5.40;99.90;;;;;;5053112;28;20546;-79
2022/01/13 01:05:27;;;;;;;119.78;39.85;;;5.40;99.90;;;;;;5053450;28;20057;-79
2022/01/13 01:07:58;;;;;;;137.70;41.25;;;5.40;99.90;;;;;;5053153;28;20031;-79
2022/01/13 01:10:27;;;;;;;137.10;44.33;;;5.40;99.90;;;;;;5051657;28;20017;-79
2022/01/13 01:12:53;;;;;;;136.35;42.28;;;5.40;99.90;;;;;;5052014;28;20382;-79
2022/01/13 01:15:20;;;;;;;153.00;45.22;;;5.40;99.90;;;;;;5051818;28;20029;-79
2022/01/13 01:17:51;;;;;;;133.40;42.35;;;5.50;99.90;;;;;;5053393;28;20029;-79
2022/01/13 01:20:19;;;;;;;142.00;41.22;;;5.40;99.90;;;;;;5051846;28;20025;-79
2022/01/13 01:25:36;;;;;;;149.60;42.83;;;5.20;99.90;;;;;;5067961;28;20358;-79
2022/01/13 01:28:11;;;;;;;151.30;44.78;;;5.30;99.90;;;;;;5052982;28;20021;-79
2022/01/13 01:30:43;;;;;;;131.07;42.75;;;5.30;99.90;;;;;;5054748;28;20043;-79
2022/01/13 01:33:16;;;;;;;144.98;44.45;;;5.40;99.90;;;;;;5065893;28;20022;-79
2022/01/13 01:35:42;;;;;;;138.13;43.38;;;5.40;99.90;;;;;;5052153;28;20027;-80
2022/01/13 01:38:10;;;;;;;129.52;43.80;;;5.30;99.90;;;;;;5051608;28;20124;-79
2022/01/13 01:40:37;;;;;;;137.55;43.67;;;5.30;99.90;;;;;;5057772;28;20081;-79
2022/01/13 01:43:05;;;;;;;134.77;43.83;;;5.30;99.90;;;;;;5046718;28;20104;-79
2022/01/13 01:45:42;;;;;;;122.88;41.40;;;5.40;99.90;;;;;;5033101;28;20029;-79
2022/01/13 01:48:19;;;;;;;137.90;47.40;;;5.30;99.90;;;;;;5032985;28;20385;-79
2022/01/13 01:50:54;;;;;;;138.02;43.42;;;5.20;99.90;;;;;;5031747;28;20021;-79
2022/01/13 01:53:27;;;;;;;143.93;46.67;;;5.20;99.90;;;;;;5032944;28;20151;-79
2022/01/13 01:55:57;;;;;;;142.32;42.97;;;5.30;99.90;;;;;;5041453;28;20480;-79
2022/01/13 01:58:26;;;;;;;154.55;46.67;;;5.30;99.90;;;;;;5052785;28;20056;-79
2022/01/13 02:00:56;;;;;;;153.75;49.03;;;5.20;99.90;;;;;;5052825;28;20044;-79
2022/01/13 02:03:28;;;;;;;158.88;47.17;;;5.20;99.90;;;;;;5051513;28;20036;-79
2022/01/13 02:05:57;;;;;;;140.23;45.88;;;5.20;99.90;;;;;;5033043;28;20052;-79
2022/01/13 02:08:26;;;;;;;151.90;46.88;;;5.20;99.90;;;;;;5031444;28;20025;-79
2022/01/13 02:10:57;;;;;;;148.18;45.67;;;5.20;99.90;;;;;;5032915;28;20022;-79
2022/01/13 02:13:24;;;;;;;145.17;44.27;;;5.30;99.90;;;;;;5032735;28;20029;-79
2022/01/13 02:16:05;;;;;;;141.77;44.25;;;5.30;99.90;;;;;;5035516;28;20283;-79
2022/01/13 02:18:34;;;;;;;177.43;47.58;;;5.30;99.90;;;;;;5051262;28;20096;-79
2022/01/13 02:21:01;;;;;;;149.40;47.35;;;5.40;99.90;;;;;;5052627;28;20094;-79
2022/01/13 02:23:38;;;;;;;158.93;45.72;;;5.40;99.90;;;;;;5052427;28;20418;-79
2022/01/13 02:26:09;;;;;;;167.93;45.75;;;5.40;99.90;;;;;;5052266;28;20033;-79
2022/01/13 02:28:38;;;;;;;184.15;48.40;;;5.40;99.90;;;;;;5051311;28;20087;-79
2022/01/13 02:31:04;;;;;;;162.02;48.42;;;5.30;99.90;;;;;;5052590;28;20124;-79
2022/01/13 02:33:35;;;;;;;161.65;49.25;;;5.40;99.90;;;;;;5062765;28;20099;-79
2022/01/13 02:36:05;;;;;;;165.68;50.55;;;5.40;99.90;;;;;;5073629;28;20388;-79
2022/01/13 02:38:35;;;;;;;163.63;50.03;;;5.50;99.90;;;;;;5075816;28;20028;-79
2022/01/13 02:41:03;;;;;;;178.00;49.72;;;5.50;99.90;;;;;;5074787;28;20453;-79
2022/01/13 02:43:33;;;;;;;154.32;45.38;;;5.40;99.90;;;;;;5056558;28;20037;-79
2022/01/13 02:46:18;;;;;;;153.07;46.17;;;5.40;99.90;;;;;;5055638;28;20021;-80
2022/01/13 02:48:46;;;;;;;174.63;46.90;;;5.40;99.90;;;;;;5075486;28;20567;-81
2022/01/13 02:51:12;;;;;;;151.73;45.78;;;5.40;99.90;;;;;;5075998;28;20126;-80
2022/01/13 02:53:40;;;;;;;154.70;45.30;;;5.30;99.90;;;;;;5075679;28;20075;-80
2022/01/13 02:56:07;;;;;;;133.20;43.13;;;5.30;99.90;;;;;;5053014;28;20367;-80
2022/01/13 02:58:34;;;;;;;145.98;43.08;;;5.30;99.90;;;;;;5035835;28;20026;-79
2022/01/13 03:01:04;;;;;;;172.95;49.35;;;5.20;99.90;;;;;;5044514;28;20029;-79
2022/01/13 03:03:35;;;;;;;172.40;48.25;;;5.20;99.90;;;;;;5067590;28;20040;-78
2022/01/13 03:06:08;;;;;;;181.52;48.60;;;5.20;99.90;;;;;;5066170;28;20025;-79
2022/01/13 03:08:35;;;;;;;149.85;47.65;;;5.30;99.90;;;;;;5043642;28;20018;-79
2022/01/13 03:11:04;;;;;;;159.05;46.90;;;5.30;99.90;;;;;;5035606;28;20017;-78
2022/01/13 03:13:32;;;;;;;150.02;45.08;;;5.20;99.90;;;;;;5035493;28;20109;-79
2022/01/13 03:16:13;;;;;;;145.15;46.25;;;5.10;99.90;;;;;;5035329;28;20037;-79
2022/01/13 03:18:41;;;;;;;167.20;45.88;;;5.10;99.90;;;;;;5047463;28;20393;-80
2022/01/13 03:21:09;;;;;;;138.25;44.17;;;5.00;99.90;;;;;;5053828;28;20028;-80
2022/01/13 03:23:38;;;;;;;136.68;47.05;;;5.10;99.90;;;;;;5055360;28;20036;-80
2022/01/13 03:26:05;;;;;;;164.05;46.28;;;5.20;99.90;;;;;;5053859;28;20036;-80
2022/01/13 03:29:04;;;;;;;172.23;47.38;;;5.20;99.90;;;;;;5053793;28;20017;-80
2022/01/13 03:31:33;;;;;;;163.00;48.38;;;5.20;99.90;;;;;;5070573;28;20017;-80
2022/01/13 03:34:01;;;;;;;167.77;48.08;;;5.20;99.90;;;;;;5055145;28;20056;-79
2022/01/13 03:36:27;;;;;;;171.98;51.03;;;5.30;99.90;;;;;;5053534;28;20427;-80
2022/01/13 03:38:54;;;;;;;170.73;48.70;;;5.30;99.90;;;;;;5054945;28;20025;-80
2022/01/13 03:41:21;;;;;;;162.57;48.63;;;5.30;99.90;;;;;;5053798;28;20132;-80
2022/01/13 03:43:54;;;;;;;188.95;52.47;;;5.30;99.90;;;;;;5054926;28;20100;-80
2022/01/13 03:46:22;;;;;;;181.32;53.20;;;5.30;99.90;;;;;;5054239;28;20024;-80
2022/01/13 03:48:47;;;;;;;182.52;51.70;;;5.40;99.90;;;;;;5040161;28;20104;-80
2022/01/13 03:51:13;;;;;;;190.70;47.08;;;5.30;99.90;;;;;;5049979;28;20179;-80
2022/01/13 03:54:16;;;;;;;180.65;51.15;;;5.20;99.90;;;;;;5034778;28;20033;-80
2022/01/13 03:56:42;;;;;;;;;;;5.20;99.90;;;;;;5049934;28;20039;-77
2022/01/13 03:59:36;;;;;;;176.68;48.80;;;5.20;99.90;;;;;;5059777;28;19912;-80
2022/01/13 04:02:23;;;;;;;164.75;49.17;;;5.10;99.90;;;;;;5057116;28;20477;-80
2022/01/13 04:04:49;;;;;;;154.52;47.30;;;5.10;99.90;;;;;;5032635;28;20393;-80
2022/01/13 04:07:20;;;;;;;154.52;43.75;;;5.00;99.90;;;;;;5034130;28;20060;-80
2022/01/13 04:09:46;;;;;;;167.95;46.80;;;4.90;99.90;;;;;;5033009;28;20083;-80
2022/01/13 04:12:16;;;;;;;166.18;46.40;;;5.00;99.90;;;;;;5034196;28;20108;-80
2022/01/13 04:14:46;;;;;;;168.75;46.22;;;4.90;99.90;;;;;;5034193;28;20033;-80
2022/01/13 04:17:21;;;;;;;160.65;45.47;;;4.90;99.90;;;;;;5032953;28;20494;-80
2022/01/13 04:19:48;;;;;;;151.85;45.05;;;4.90;99.90;;;;;;5032838;28;20068;-80
2022/01/13 04:22:18;;;;;;;153.75;45.88;;;5.00;99.90;;;;;;5032959;28;20474;-80
2022/01/13 04:24:49;;;;;;;141.95;43.58;;;5.10;99.90;;;;;;5049522;28;20025;-80
2022/01/13 04:27:31;;;;;;;150.05;43.30;;;5.10;99.90;;;;;;5054153;28;20032;-80
2022/01/13 04:30:33;;;;;;;157.32;49.05;;;5.20;99.90;;;;;;5052931;28;20021;-80
2022/01/13 04:33:00;;;;;;;159.40;46.90;;;5.20;99.90;;;;;;5053769;28;20470;-80
2022/01/13 04:35:26;;;;;;;175.90;48.22;;;5.20;99.90;;;;;;5041209;28;20121;-81
2022/01/13 04:37:55;;;;;;;165.75;51.42;;;5.20;99.90;;;;;;5049219;28;20063;-80
2022/01/13 04:40:27;;;;;;;169.15;47.42;;;5.20;99.90;;;;;;5033891;28;20025;-80
2022/01/13 04:42:55;;;;;;;160.30;46.15;;;5.10;99.90;;;;;;5032681;28;20026;-80
2022/01/13 04:45:27;;;;;;;172.35;45.30;;;5.00;99.90;;;;;;5033843;28;20081;-80
2022/01/13 04:47:54;;;;;;;163.90;46.75;;;4.90;99.90;;;;;;5044685;28;20028;-79
2022/01/13 04:50:22;;;;;;;161.68;48.15;;;4.90;99.90;;;;;;5070682;28;20024;-78
2022/01/13 04:52:48;;;;;;;197.85;51.85;;;5.00;99.90;;;;;;5073805;28;20488;-78
2022/01/13 04:55:21;;;;;;;183.57;47.50;;;5.00;99.90;;;;;;5069822;28;20092;-78
2022/01/13 04:57:48;;;;;;;161.38;47.75;;;4.90;99.90;;;;;;5053606;28;20025;-77
2022/01/13 05:00:15;;;;;;;158.60;45.63;;;4.90;99.90;;;;;;5052940;28;20024;-77
2022/01/13 05:02:41;;;;;;;163.27;46.97;;;4.80;99.90;;;;;;5033398;28;20031;-77
2022/01/13 05:05:08;;;;;;;165.07;46.20;;;4.90;99.90;;;;;;5037904;28;20107;-77
2022/01/13 05:07:37;;;;;;;167.25;44.95;;;4.90;99.90;;;;;;5032125;28;20537;-77
2022/01/13 05:10:03;;;;;;;193.63;48.42;;;5.00;99.90;;;;;;5033432;28;20053;-77
2022/01/13 05:12:37;;;;;;;189.18;47.10;;;4.90;99.90;;;;;;5048721;28;20041;-77
2022/01/13 05:15:05;;;;;;;158.65;45.95;;;4.90;99.90;;;;;;5032293;28;20038;-77
2022/01/13 05:20:20;;;;;;;165.77;45.70;;;4.80;99.90;;;;;;5053240;28;20040;-77
2022/01/13 05:22:47;;;;;;;178.98;47.55;;;4.70;99.90;;;;;;5053242;28;20025;-77
2022/01/13 05:25:15;;;;;;;167.82;46.15;;;4.80;99.90;;;;;;5053254;28;20020;-77
2022/01/13 05:27:42;;;;;;;176.85;47.33;;;4.90;99.90;;;;;;5064924;28;20399;-78
2022/01/13 05:30:09;;;;;;;174.95;47.58;;;5.00;99.90;;;;;;5076370;28;20020;-77
2022/01/13 05:32:35;;;;;;;166.68;47.88;;;5.00;99.90;;;;;;5057370;28;20025;-78
2022/01/13 05:35:01;;;;;;;161.93;45.15;;;5.00;99.90;;;;;;5057309;28;20021;-78
2022/01/13 05:37:27;;;;;;;151.57;45.03;;;4.90;99.90;;;;;;5051822;28;20036;-77
2022/01/13 05:39:53;;;;;;;178.90;46.92;;;4.80;99.90;;;;;;5053065;28;20032;-77
2022/01/13 05:42:19;;;;;;;181.43;47.25;;;4.70;99.90;;;;;;5052157;28;20029;-77
2022/01/13 05:44:46;;;;;;;177.45;45.65;;;4.80;99.90;;;;;;5050786;28;20044;-77
2022/01/13 05:47:15;;;;;;;177.32;46.15;;;4.90;99.90;;;;;;5068338;28;20024;-78
2022/01/13 05:49:43;;;;;;;161.45;46.10;;;4.90;99.90;;;;;;5051898;28;20036;-78
2022/01/13 05:52:12;;;;;;;195.32;44.58;;;4.90;99.90;;;;;;5053234;28;20039;-77
2022/01/13 05:54:40;;;;;;;175.38;45.13;;;4.90;99.90;;;;;;5051576;28;20158;-77
2022/01/13 05:57:07;;;;;;;209.27;49.45;;;4.90;99.90;;;;;;5036460;28;20029;-77
2022/01/13 05:59:35;;;;;;;206.07;47.80;;;4.80;99.90;;;;;;5032930;28;20029;-78
2022/01/13 06:02:00;;;;;;;192.63;46.65;;;4.80;99.90;;;;;;5047135;28;20025;-77
2022/01/13 06:04:28;;;;;;;163.73;44.85;;;4.70;99.90;;;;;;5051259;28;20091;-78
2022/01/13 06:06:55;;;;;;;178.07;48.20;;;4.70;99.90;;;;;;5052683;28;20424;-77
2022/01/13 06:09:20;;;;;;;186.40;47.55;;;4.70;99.90;;;;;;5051916;28;20104;-78
2022/01/13 06:11:58;;;;;;;196.52;48.35;;;4.70;99.90;;;;;;5060966;28;20013;-79
2022/01/13 06:14:24;;;;;;;153.25;44.13;;;4.60;99.90;;;;;;5054502;28;20091;-79
2022/01/13 06:16:50;;;;;;;157.43;43.25;;;4.60;99.90;;;;;;5035538;28;20429;-79
2022/01/13 06:19:16;;;;;;;143.52;40.47;;;4.60;99.90;;;;;;5061757;28;20028;-78
2022/01/13 06:21:43;;;;;;;134.02;39.40;;;4.50;99.90;;;;;;5076382;28;20028;-78
2022/01/13 06:24:11;;;;;;;138.77;39.72;;;4.60;99.90;;;;;;5076618;28;20029;-78
2022/01/13 06:26:38;;;;;;;129.80;38.55;;;4.60;99.90;;;;;;5057988;28;20036;-79
2022/01/13 06:29:04;;;;;;;154.73;39.60;;;4.60;99.90;;;;;;5056575;28;20428;-78
2022/01/13 06:31:30;;;;;;;129.65;38.03;;;4.50;99.90;;;;;;5056450;28;20017;-78
2022/01/13 06:33:57;;;;;;;126.22;38.35;;;4.50;99.90;;;;;;5055235;28;20508;-78
2022/01/13 06:36:23;;;;;;;147.18;40.38;;;4.50;99.90;;;;;;5056232;28;20474;-79
2022/01/13 06:38:51;;;;;;;151.45;40.33;;;4.60;99.90;;;;;;5056584;28;20062;-78
2022/01/13 06:41:20;;;;;;;172.93;44.35;;;4.60;99.90;;;;;;5061168;28;20036;-78
2022/01/13 06:43:45;;;;;;;156.75;41.38;;;4.60;99.90;;;;;;5056115;28;20040;-79
2022/01/13 06:46:15;;;;;;;147.50;40.58;;;4.60;99.90;;;;;;5065181;28;20021;-79
2022/01/13 06:48:43;;;;;;;154.57;41.90;;;4.60;99.90;;;;;;5074644;28;20031;-79
2022/01/13 06:51:10;;;;;;;128.80;38.78;;;4.70;99.90;;;;;;5074752;28;20020;-79
2022/01/13 06:53:36;;;;;;;266.35;50.47;;;4.50;99.90;;;;;;5071750;28;20044;-80
2022/01/13 06:56:10;;;;;;;277.38;44.38;;;4.40;99.90;;;;;;5056021;28;20079;-80
2022/01/13 06:58:37;;;;;;;128.43;37.15;;;4.50;99.90;;;;;;5055468;28;20025;-79
2022/01/13 07:01:06;;;;;;;121.75;37.97;;;4.40;99.90;;;;;;5054657;28;20393;-79
2022/01/13 07:03:32;;;;;;;132.57;37.90;;;4.50;99.90;;;;;;5044057;28;20025;-79
2022/01/13 07:05:57;;;;;;;169.82;40.03;;;4.50;99.90;;;;;;5054370;28;20025;-79
2022/01/13 07:08:26;;;;;;;196.05;42.55;;;4.50;99.90;;;;;;5054571;28;20045;-79
2022/01/13 07:10:53;;;;;;;351.90;48.70;;;4.50;99.90;;;;;;5035930;28;20022;-79
2022/01/13 07:13:21;;;;;;;161.98;38.15;;;4.50;99.90;;;;;;5042715;28;20021;-79
2022/01/13 07:15:58;;;;;;;171.15;37.33;;;4.40;99.90;;;;;;5062544;28;20477;-79
2022/01/13 07:18:24;;;;;;;171.52;38.58;;;4.40;99.90;;;;;;5055319;28;20079;-79
2022/01/13 07:20:50;;;;;;;354.08;48.58;;;4.40;99.90;;;;;;5055369;28;20028;-79
2022/01/13 07:23:15;;;;;;;200.52;42.53;;;4.30;99.90;;;;;;5054512;28;20029;-79
2022/01/13 07:25:41;;;;;;;181.50;39.78;;;4.30;99.90;;;;;;5055241;28;20025;-80
2022/01/13 07:28:07;;;;;;;118.82;35.15;;;4.40;99.90;;;;;;5053928;28;20029;-79
2022/01/13 07:30:34;;;;;;;139.82;39.35;;;4.30;99.90;;;;;;5055424;28;20029;-79
2022/01/13 07:33:00;;;;;;;611.58;62.17;;;4.30;99.90;;;;;;5054047;28;20017;-79
2022/01/13 07:35:27;;;;;;;153.38;39.03;;;4.20;99.90;;;;;;5055298;28;20074;-79
2022/01/13 07:37:56;;;;;;;198.65;40.03;;;4.20;99.90;;;;;;5033930;28;20057;-79
2022/01/13 07:40:22;;;;;;;205.30;39.92;;;4.20;99.90;;;;;;5052184;28;20021;-78
2022/01/13 07:42:50;;;;;;;279.30;44.20;;;4.10;99.90;;;;;;5053480;28;20036;-79
2022/01/13 07:45:18;;;;;;;168.68;37.63;;;4.10;99.90;;;;;;5053816;28;20028;-79
2022/01/13 07:47:44;;;;;;;185.52;40.22;;;4.10;99.90;;;;;;5053448;28;20017;-79
2022/01/13 07:50:13;;;;;;;337.95;46.70;;;4.20;99.90;;;;;;5059216;28;20013;-79
2022/01/13 07:52:39;;;;;;;236.30;42.50;;;4.20;99.90;;;;;;5054714;28;20448;-79
2022/01/13 07:55:05;;;;;;;132.63;37.47;;;4.20;99.90;;;;;;5054726;28;20092;-80
2022/01/13 07:57:30;;;;;;;224.80;44.03;;;4.30;99.90;;;;;;5053241;28;20048;-79
2022/01/13 07:59:56;;;;;;;405.33;53.75;;;4.20;99.90;;;;;;5054799;28;20052;-79
2022/01/13 08:02:24;;;;;;;352.15;49.85;;;4.30;99.90;;;;;;5048533;28;20082;-79
2022/01/13 08:04:56;;;;;;;309.17;47.72;;;4.20;99.90;;;;;;5054544;28;20025;-80
2022/01/13 08:07:23;;;;;;;494.90;60.50;;;4.20;99.90;;;;;;5054679;28;20031;-80
2022/01/13 08:09:52;;;;;;;415.33;51.45;;;4.20;99.90;;;;;;5053255;28;20473;-79
2022/01/13 08:12:21;;;;;;;214.05;42.70;;;4.20;99.90;;;;;;5053161;28;20420;-79
2022/01/13 08:14:49;;;;;;;395.90;49.38;;;4.20;99.90;;;;;;5054646;28;20021;-78
2022/01/13 08:20:03;;;;;;;180.15;38.92;;;4.20;99.90;;;;;;5054635;28;20107;-78
2022/01/13 08:22:28;;;;;;;129.15;36.78;;;4.30;99.90;;;;;;5052865;28;20024;-78
2022/01/13 08:24:54;;;;;;;238.25;43.58;;;4.20;99.90;;;;;;5054759;28;20025;-78
2022/01/13 08:27:23;;;;;;;165.10;37.45;;;4.20;99.90;;;;;;5054037;28;20056;-78
2022/01/13 08:29:49;;;;;;;224.55;42.70;;;4.30;99.90;;;;;;5052643;28;20075;-78
2022/01/13 08:32:14;;;;;;;178.15;36.30;;;4.30;99.90;;;;;;5053665;28;20032;-79
2022/01/13 08:34:41;;;;;;;130.10;34.33;;;4.30;99.90;;;;;;5052421;28;20021;-78
2022/01/13 08:37:07;;;;;;;134.68;34.58;;;4.40;99.90;;;;;;5054185;28;20434;-78
2022/01/13 08:39:42;;;;;;;202.38;42.03;;;4.40;99.90;;;;;;5054548;28;20059;-78
2022/01/13 08:42:12;;;;;;;149.77;34.15;;;4.50;99.90;;;;;;5052238;28;20044;-78
2022/01/13 08:44:41;;;;;;;283.02;41.38;;;4.50;99.90;;;;;;5052638;28;20435;-78
2022/01/13 08:47:09;;;;;;;184.82;36.95;;;4.40;99.90;;;;;;5052493;28;20462;-79
2022/01/13 08:49:36;;;;;;;150.15;35.15;;;4.40;99.90;;;;;;5053843;28;20016;-78
2022/01/13 08:52:02;;;;;;;227.02;36.97;;;4.50;99.90;;;;;;5047340;28;20061;-79
2022/01/13 08:54:28;;;;;;;170.30;34.97;;;4.50;99.90;;;;;;5050316;28;20024;-78
2022/01/13 08:56:56;;;;;;;215.05;36.08;;;4.40;99.90;;;;;;5033685;28;20029;-79
2022/01/13 08:59:25;;;;;;;279.80;42.88;;;4.50;99.90;;;;;;5051532;28;20386;-78
2022/01/13 09:01:53;;;;;;;129.23;34.97;;;4.40;99.90;;;;;;5051052;28;20120;-78
2022/01/13 09:04:20;;;;;;;137.15;36.63;;;4.40;99.90;;;;;;5053212;28;20057;-79
2022/01/13 09:06:47;;;;;;;231.40;42.65;;;4.40;99.90;;;;;;5052453;28;20040;-78
2022/01/13 09:09:14;;;;;;;156.05;35.47;;;4.50;99.90;;;;;;5058946;28;20031;-78
2022/01/13 09:11:43;;;;;;;131.00;37.38;;;4.50;99.90;;;;;;5051612;28;20029;-79
2022/01/13 09:14:09;;;;;;;185.70;40.95;;;4.50;99.90;;;;;;5061844;28;20020;-79
2022/01/13 09:16:44;;;;;;;122.35;32.78;;;4.50;99.90;;;;;;5062453;28;20075;-79
2022/01/13 09:19:14;;;;;;;185.02;36.95;;;4.50;99.90;;;;;;5052710;28;20421;-79
2022/01/13 09:21:42;;;;;;;189.13;39.90;;;4.50;99.90;;;;;;5066277;28;20024;-79
2022/01/13 09:24:11;;;;;;;140.77;36.45;;;4.60;99.90;;;;;;5058040;28;20030;-79
2022/01/13 09:26:37;;;;;;;127.85;35.38;;;4.60;99.90;;;;;;5051267;28;20450;-79
2022/01/13 09:29:05;;;;;;;118.82;34.47;;;4.70;99.90;;;;;;5048243;28;20508;-78
2022/01/13 09:31:32;;;;;;;341.20;46.47;;;4.60;99.90;;;;;;5049418;28;20465;-79
2022/01/13 09:33:58;;;;;;;200.90;36.92;;;4.50;99.90;;;;;;5042209;28;20026;-79
2022/01/13 09:36:24;;;;;;;170.55;37.53;;;4.50;99.90;;;;;;5049107;28;20060;-79
2022/01/13 09:38:50;;;;;;;167.25;38.53;;;4.50;99.90;;;;;;5043581;28;20525;-78
2022/01/13 09:41:20;;;;;;;151.40;39.35;;;4.50;99.90;;;;;;5052095;28;20108;-78
2022/01/13 09:43:46;;;;;;;171.43;38.95;;;4.70;99.90;;;;;;5051247;28;20048;-78
2022/01/13 09:46:12;;;;;;;257.92;43.72;;;4.60;99.90;;;;;;5055271;28;20498;-78
2022/01/13 09:48:40;;;;;;;255.10;47.55;;;4.60;99.90;;;;;;5051166;28;20480;-79
2022/01/13 09:51:08;;;;;;;159.05;38.83;;;4.60;99.90;;;;;;5064099;28;20024;-78
2022/01/13 09:53:34;;;;;;;144.98;35.35;;;4.70;99.90;;;;;;5068183;28;20059;-78
2022/01/13 09:56:00;;;;;;;166.55;36.35;;;4.70;99.90;;;;;;5063761;28;20025;-78
2022/01/13 09:58:26;;;;;;;276.15;42.88;;;4.60;99.90;;;;;;5055101;28;20032;-79
2022/01/13 10:00:53;;;;;;;126.97;34.65;;;4.60;99.90;;;;;;5055196;28;20082;-79
2022/01/13 10:03:25;;;;;;;145.68;34.42;;;4.60;99.90;;;;;;5052878;28;20108;-79
2022/01/13 10:06:00;;;;;;;137.75;35.58;;;4.60;99.90;;;;;;5056264;28;20032;-80
2022/01/13 10:08:45;;;;;;;149.75;36.53;;;4.70;99.90;;;;;;5040543;28;20466;-79
2022/01/13 10:11:38;;;;;;;109.63;33.95;;;4.70;99.90;;;;;;5060737;28;20021;-79
2022/01/13 10:16:54;;;;;;;152.45;37.78;;;4.70;99.90;;;;;;5052440;28;20048;-78
2022/01/13 10:19:38;;;;;;;131.55;35.70;;;4.70;99.90;;;;;;5052379;28;20033;-79
2022/01/13 10:22:30;;;;;;;111.80;32.63;;;4.80;99.90;;;;;;5048766;28;20051;-79
2022/01/13 10:24:59;;;;;;;114.22;32.05;;;4.70;99.90;;;;;;5056867;28;20038;-78
2022/01/13 10:27:31;;;;;;;141.23;35.50;;;4.70;99.90;;;;;;5045401;28;20066;-79
2022/01/13 10:30:05;;;;;;;200.88;37.00;;;4.80;99.90;;;;;;5053455;28;20466;-79
2022/01/13 10:32:39;;;;;;;107.57;30.48;;;4.70;99.90;;;;;;5053680;28;20037;-78
2022/01/13 10:35:18;;;;;;;97.97;29.75;;;4.80;99.90;;;;;;5045987;28;20025;-78
2022/01/13 10:37:54;;;;;;;109.45;30.77;;;4.70;99.90;;;;;;5051492;28;20017;-78
2022/01/13 10:40:31;;;;;;;130.60;30.25;;;4.80;99.90;;;;;;5038594;28;20421;-78
2022/01/13 10:45:40;;;;;;;132.10;33.45;;;4.90;99.90;;;;;;5049790;28;20393;-78
2022/01/13 10:48:12;;;;;;;120.57;31.20;;;4.80;99.90;;;;;;5063548;28;20024;-78
2022/01/13 10:50:41;;;;;;;109.27;30.73;;;4.70;99.90;;;;;;5047424;28;20389;-78
2022/01/13 10:53:29;;;;;;;94.90;29.15;;;4.80;99.90;;;;;;5055163;28;20493;-78
2022/01/13 10:55:59;;;;;;;207.40;37.75;;;4.80;99.90;;;;;;5046782;28;20094;-78
2022/01/13 10:58:32;;;;;;;125.55;30.75;;;4.80;99.90;;;;;;5039320;28;20033;-77
2022/01/13 11:01:00;;;;;;;172.77;35.35;;;4.90;99.90;;;;;;5044962;28;20151;-78
2022/01/13 11:03:28;;;;;;;109.32;31.63;;;4.90;99.90;;;;;;5052377;28;20022;-77
2022/01/13 11:06:03;;;;;;;95.03;28.23;;;4.90;99.90;;;;;;5055097;28;20044;-78
2022/01/13 11:08:40;;;;;;;117.22;29.20;;;4.90;99.90;;;;;;5053523;28;20052;-78
2022/01/13 11:11:26;;;;;;;202.70;33.47;;;5.00;99.90;;;;;;5045322;28;20110;-77
2022/01/13 11:13:56;;;;;;;101.53;27.33;;;4.90;99.90;;;;;;5036418;28;20026;-77
2022/01/13 11:16:24;;;;;;;115.07;28.55;;;4.90;99.90;;;;;;5043507;28;20017;-77
2022/01/13 11:18:51;;;;;;;93.70;26.83;;;4.90;99.90;;;;;;5053942;28;20029;-78
2022/01/13 11:21:20;;;;;;;87.30;25.67;;;5.00;99.90;;;;;;5039072;28;20026;-78
2022/01/13 11:23:50;;;;;;;97.65;27.33;;;5.00;99.90;;;;;;5055778;28;20110;-78
2022/01/13 11:26:17;;;;;;;78.57;23.45;;;5.00;99.90;;;;;;5052580;28;20030;-78
2022/01/13 11:28:45;;;;;;;99.43;28.50;;;5.10;99.90;;;;;;5035400;28;20025;-77
2022/01/13 11:31:14;;;;;;;82.38;24.90;;;5.00;99.90;;;;;;5043735;28;20024;-77
2022/01/13 11:33:41;;;;;;;104.05;29.33;;;5.10;99.90;;;;;;5053038;28;20099;-77
2022/01/13 11:36:12;;;;;;;90.63;27.92;;;5.10;99.90;;;;;;5054785;28;20025;-77
2022/01/13 11:38:53;;;;;;;100.70;29.48;;;5.10;99.90;;;;;;5053709;28;20036;-78
2022/01/13 11:41:24;;;;;;;109.47;29.75;;;5.20;99.90;;;;;;5050978;28;20047;-77
2022/01/13 11:43:50;;;;;;;109.75;30.70;;;5.00;99.90;;;;;;5041915;28;20051;-79
2022/01/13 11:46:25;;;;;;;97.80;28.67;;;5.10;99.90;;;;;;5049675;28;20039;-79
2022/01/13 11:49:07;;;;;;;106.30;30.42;;;5.10;99.90;;;;;;5045875;28;20029;-77
2022/01/13 11:51:58;;;;;;;105.18;29.92;;;5.20;99.90;;;;;;5051277;28;20025;-79
2022/01/13 11:54:31;;;;;;;138.15;33.15;;;5.20;99.90;;;;;;5051198;28;20021;-79
2022/01/13 11:57:17;;;;;;;;;;;5.20;99.90;;;;;;5042092;28;20551;-77
2022/01/13 11:59:58;;;;;;;127.18;31.88;;;5.10;99.90;;;;;;5053079;28;19916;-79
2022/01/13 12:02:33;;;;;;;148.90;35.67;;;5.20;99.90;;;;;;5047300;28;20029;-79
2022/01/13 12:04:59;;;;;;;139.90;36.22;;;5.20;99.90;;;;;;5049932;28;20029;-78
2022/01/13 12:07:36;;;;;;;112.78;33.10;;;5.20;99.90;;;;;;5047376;28;20073;-79
2022/01/13 12:10:04;;;;;;;126.72;36.28;;;5.20;99.90;;;;;;5051686;28;20056;-79
2022/01/13 12:12:33;;;;;;;119.05;36.72;;;5.20;99.90;;;;;;5051523;28;20531;-79
2022/01/13 12:15:26;;;;;;;143.35;37.55;;;5.20;99.90;;;;;;5065930;28;20029;-78
2022/01/13 12:17:59;;;;;;;138.90;37.67;;;5.20;99.90;;;;;;5051601;28;20017;-79
2022/01/13 12:20:41;;;;;;;147.15;35.58;;;5.30;99.90;;;;;;5051048;28;20021;-79
2022/01/13 12:23:28;;;;;;;;;;;5.20;99.90;;;;;;5047424;28;20024;-76
2022/01/13 12:25:56;;;;;;;128.80;34.40;;;5.30;99.90;;;;;;5042180;28;19920;-78
2022/01/13 12:28:26;;;;;;;117.55;33.70;;;5.30;99.90;;;;;;5053038;28;20586;-78
2022/01/13 12:30:53;;;;;;;116.95;34.03;;;5.30;99.90;;;;;;5051514;28;20074;-79
2022/01/13 12:33:33;;;;;;;109.93;32.80;;;5.40;99.90;;;;;;5045834;28;20030;-80
2022/01/13 12:35:59;;;;;;;118.82;35.38;;;5.30;99.90;;;;;;5045925;28;20034;-79
2022/01/13 12:38:27;;;;;;;177.15;38.08;;;5.40;99.90;;;;;;5059106;28;20060;-79
2022/01/13 12:41:14;;;;;;;167.77;39.75;;;5.40;99.90;;;;;;5046651;28;20017;-79
2022/01/13 12:46:13;;;;;;;118.78;34.15;;;5.40;99.90;;;;;;5055477;28;20033;-79
2022/01/13 12:48:42;;;;;;;141.65;35.38;;;5.40;99.90;;;;;;5053798;28;20105;-79
2022/01/13 12:51:13;;;;;;;141.85;35.58;;;5.40;99.90;;;;;;5055231;28;20020;-80
2022/01/13 12:53:40;;;;;;;129.17;34.87;;;5.40;99.90;;;;;;5048213;28;20385;-79
2022/01/13 12:56:14;;;;;;;111.75;33.50;;;5.40;99.90;;;;;;5049234;28;20739;-79
2022/01/13 12:58:46;;;;;;;115.55;34.03;;;5.40;99.90;;;;;;5052581;28;20032;-79
2022/01/13 13:01:21;;;;;;;132.40;34.10;;;5.50;99.90;;;;;;5064646;28;20116;-79
2022/01/13 13:04:11;;;;;;;119.18;32.22;;;5.40;99.90;;;;;;5047521;28;20037;-79